createdAt,value
2019-02-27T00:00:49.632Z,99.90
2019-02-27T00:03:23.012Z,99.90
2019-02-27T00:05:52.079Z,99.90
2019-02-27T00:08:21.090Z,99.90
2019-02-27T00:10:50.565Z,99.90
2019-02-27T00:13:19.670Z,99.90
2019-02-27T00:15:49.099Z,99.90
2019-02-27T00:18:23.706Z,99.90
2019-02-27T00:20:50.333Z,99.90
2019-02-27T00:23:23.788Z,99.90
2019-02-27T00:25:50.057Z,99.90
2019-02-27T00:28:23.120Z,99.90
2019-02-27T00:30:49.685Z,99.90
2019-02-27T00:33:18.675Z,99.90
2019-02-27T00:35:47.665Z,99.90
2019-02-27T00:38:16.555Z,99.90
2019-02-27T00:40:45.650Z,99.90
2019-02-27T00:43:14.642Z,99.90
2019-02-27T00:45:43.734Z,99.90
2019-02-27T00:48:12.778Z,99.90
2019-02-27T00:50:41.824Z,99.90
2019-02-27T00:53:10.815Z,99.90
2019-02-27T00:55:39.818Z,99.90
2019-02-27T00:58:08.903Z,99.90
2019-02-27T01:00:39.328Z,99.90
2019-02-27T01:03:08.562Z,99.90
2019-02-27T01:05:40.964Z,99.90
2019-02-27T01:08:08.351Z,99.90
2019-02-27T01:10:37.549Z,99.90
2019-02-27T01:13:06.540Z,99.90
2019-02-27T01:15:35.530Z,99.90
2019-02-27T01:18:04.527Z,99.90
2019-02-27T01:20:33.514Z,99.90
2019-02-27T01:23:02.610Z,99.90
2019-02-27T01:25:31.704Z,99.90
2019-02-27T01:28:01.645Z,99.90
2019-02-27T01:30:30.924Z,99.90
2019-02-27T01:33:03.957Z,99.90
2019-02-27T01:35:30.546Z,99.90
2019-02-27T01:37:59.639Z,99.90
2019-02-27T01:40:28.631Z,99.90
2019-02-27T01:42:57.724Z,99.90
2019-02-27T01:45:26.822Z,99.90
2019-02-27T01:47:56.016Z,99.90
2019-02-27T01:50:35.354Z,99.90
2019-02-27T01:53:07.097Z,99.90
2019-02-27T01:55:35.379Z,99.90
2019-02-27T01:58:04.480Z,99.90
2019-02-27T02:00:33.572Z,99.90
2019-02-27T02:03:02.664Z,99.90
2019-02-27T02:05:31.962Z,99.90
2019-02-27T02:08:01.471Z,99.90
2019-02-27T02:10:30.459Z,99.90
2019-02-27T02:13:14.772Z,99.90
2019-02-27T02:15:48.098Z,99.90
2019-02-27T02:18:37.647Z,99.90
2019-02-27T02:21:29.138Z,99.90
2019-02-27T02:24:20.929Z,99.90
2019-02-27T02:26:51.133Z,99.90
2019-02-27T02:29:52.974Z,99.90
2019-02-27T02:32:34.049Z,99.90
2019-02-27T02:35:31.520Z,99.90
2019-02-27T02:38:21.259Z,99.90
2019-02-27T02:41:11.319Z,99.90
2019-02-27T02:43:45.785Z,99.90
2019-02-27T02:46:26.546Z,99.90
2019-02-27T02:49:17.844Z,99.90
2019-02-27T02:51:55.411Z,99.90
2019-02-27T02:54:39.001Z,99.90
2019-02-27T02:57:22.826Z,99.90
2019-02-27T03:00:01.081Z,99.90
2019-02-27T03:03:00.712Z,99.50
2019-02-27T03:06:00.067Z,99.40
2019-02-27T03:09:03.906Z,98.60
2019-02-27T03:11:59.243Z,98.70
2019-02-27T03:14:45.686Z,98.50
2019-02-27T03:17:18.292Z,98.40
2019-02-27T03:20:43.329Z,98.50
2019-02-27T03:23:18.015Z,98.10
2019-02-27T03:25:52.383Z,98.40
2019-02-27T03:28:26.867Z,98.10
2019-02-27T03:31:01.127Z,97.60
2019-02-27T03:33:51.577Z,97.80
2019-02-27T03:36:48.900Z,97.70
2019-02-27T03:39:23.562Z,97.80
2019-02-27T03:42:00.993Z,97.80
2019-02-27T03:44:38.205Z,98.10
2019-02-27T03:47:24.886Z,98.30
2019-02-27T03:50:16.009Z,98.40
2019-02-27T03:53:02.857Z,98.50
2019-02-27T03:55:57.031Z,98.60
2019-02-27T03:58:37.438Z,98.70
2019-02-27T04:01:14.946Z,99.00
2019-02-27T04:04:06.022Z,99.10
2019-02-27T04:06:37.678Z,99.20
2019-02-27T04:09:08.510Z,99.30
2019-02-27T04:11:41.482Z,99.30
2019-02-27T04:14:26.809Z,99.40
2019-02-27T04:16:55.476Z,99.50
2019-02-27T04:19:24.160Z,99.70
2019-02-27T04:21:52.760Z,99.70
2019-02-27T04:24:22.531Z,99.60
2019-02-27T04:26:51.765Z,99.60
2019-02-27T04:29:21.012Z,99.50
2019-02-27T04:31:50.002Z,99.60
2019-02-27T04:34:19.110Z,99.70
2019-02-27T04:36:48.092Z,99.80
2019-02-27T04:39:17.072Z,99.90
2019-02-27T04:41:46.171Z,99.90
2019-02-27T04:44:15.168Z,99.90
2019-02-27T04:46:44.159Z,99.90
2019-02-27T04:49:13.135Z,99.90
2019-02-27T04:51:42.246Z,99.90
2019-02-27T04:54:11.340Z,99.90
2019-02-27T04:56:40.331Z,99.90
2019-02-27T04:59:09.425Z,99.90
2019-02-27T05:01:38.456Z,99.90
2019-02-27T05:04:07.512Z,99.90
2019-02-27T05:06:36.607Z,99.90
2019-02-27T05:09:07.284Z,99.90
2019-02-27T05:11:36.639Z,99.90
2019-02-27T05:14:05.617Z,99.90
2019-02-27T05:16:34.644Z,99.90
2019-02-27T05:19:04.133Z,99.90
2019-02-27T05:21:33.939Z,99.90
2019-02-27T05:24:05.275Z,99.90
2019-02-27T05:26:33.662Z,99.90
2019-02-27T05:29:02.656Z,99.90
2019-02-27T05:31:31.673Z,99.90
2019-02-27T05:34:00.846Z,99.90
2019-02-27T05:36:31.784Z,99.90
2019-02-27T05:39:00.456Z,99.90
2019-02-27T05:41:32.981Z,99.90
2019-02-27T05:44:00.193Z,99.90
2019-02-27T05:46:29.288Z,99.90
2019-02-27T05:48:58.427Z,99.90
2019-02-27T05:51:27.387Z,99.90
2019-02-27T05:53:58.469Z,99.90
2019-02-27T05:56:27.098Z,99.90
2019-02-27T05:58:56.246Z,99.90
2019-02-27T06:01:26.003Z,99.90
2019-02-27T06:03:54.996Z,99.90
2019-02-27T06:06:24.078Z,99.90
2019-02-27T06:08:53.203Z,99.90
2019-02-27T06:11:22.278Z,99.90
2019-02-27T06:13:51.361Z,99.90
2019-02-27T06:16:20.470Z,99.90
2019-02-27T06:18:49.564Z,99.90
2019-02-27T06:21:18.560Z,99.90
2019-02-27T06:23:47.959Z,99.90
2019-02-27T06:26:16.966Z,99.90
2019-02-27T06:28:46.042Z,99.90
2019-02-27T06:31:15.136Z,99.90
2019-02-27T06:33:45.761Z,99.90
2019-02-27T06:36:15.069Z,99.90
2019-02-27T06:38:44.062Z,99.90
2019-02-27T06:41:15.375Z,99.90
2019-02-27T06:43:43.786Z,99.90
2019-02-27T06:46:12.775Z,99.90
2019-02-27T06:48:43.575Z,99.90
2019-02-27T06:51:12.605Z,99.90
2019-02-27T06:53:41.696Z,99.90
2019-02-27T06:56:10.897Z,99.90
2019-02-27T06:58:41.566Z,99.90
2019-02-27T07:01:13.334Z,99.90
2019-02-27T07:03:44.108Z,99.90
2019-02-27T07:06:13.222Z,99.90
2019-02-27T07:08:42.204Z,99.90
2019-02-27T07:11:11.399Z,99.90
2019-02-27T07:13:40.808Z,99.90
2019-02-27T07:16:09.795Z,99.90
2019-02-27T07:18:41.501Z,99.90
2019-02-27T07:21:09.422Z,99.90
2019-02-27T07:23:38.532Z,99.90
2019-02-27T07:26:07.503Z,99.90
2019-02-27T07:28:36.700Z,99.90
2019-02-27T07:31:05.793Z,99.90
2019-02-27T07:33:34.892Z,99.90
2019-02-27T07:36:04.236Z,99.90
2019-02-27T07:38:33.488Z,99.90
2019-02-27T07:41:02.582Z,99.90
2019-02-27T07:43:31.677Z,99.90
2019-02-27T07:46:00.865Z,99.90
2019-02-27T07:48:29.966Z,99.90
2019-02-27T07:50:59.063Z,99.90
2019-02-27T07:53:28.057Z,99.90
2019-02-27T07:55:57.151Z,99.90
2019-02-27T07:58:26.141Z,99.90
2019-02-27T08:00:55.063Z,99.90
2019-02-27T08:03:24.227Z,99.90
2019-02-27T08:05:53.342Z,99.90
2019-02-27T08:08:23.748Z,99.90
2019-02-27T08:10:53.052Z,99.90
2019-02-27T08:13:22.145Z,99.90
2019-02-27T08:15:51.244Z,99.90
2019-02-27T08:18:29.531Z,99.90
2019-02-27T08:20:52.071Z,99.90
2019-02-27T08:23:21.492Z,99.90
2019-02-27T08:25:50.589Z,99.90
2019-02-27T08:28:19.683Z,99.90
2019-02-27T08:30:48.777Z,99.90
2019-02-27T08:33:17.874Z,99.90
2019-02-27T08:35:46.966Z,99.90
2019-02-27T08:38:16.059Z,99.90
2019-02-27T08:40:45.155Z,99.90
2019-02-27T08:43:14.249Z,99.90
2019-02-27T08:45:43.343Z,99.90
2019-02-27T08:48:17.151Z,99.90
2019-02-27T08:50:43.069Z,99.90
2019-02-27T08:53:12.163Z,99.90
2019-02-27T08:55:41.259Z,99.90
2019-02-27T08:58:10.352Z,99.90
2019-02-27T09:00:39.566Z,99.90
2019-02-27T09:03:08.471Z,99.90
2019-02-27T09:05:37.533Z,99.90
2019-02-27T09:08:07.344Z,99.90
2019-02-27T09:10:37.163Z,99.90
2019-02-27T09:13:06.209Z,99.90
2019-02-27T09:15:35.266Z,99.90
2019-02-27T09:18:04.337Z,99.90
2019-02-27T09:20:33.344Z,99.90
2019-02-27T09:23:02.243Z,99.90
2019-02-27T09:25:31.191Z,99.90
2019-02-27T09:28:00.103Z,99.90
2019-02-27T09:30:30.100Z,99.90
2019-02-27T09:32:59.167Z,99.90
2019-02-27T09:35:32.223Z,99.90
2019-02-27T09:37:59.056Z,99.90
2019-02-27T09:40:31.224Z,99.90
2019-02-27T09:43:00.831Z,99.90
2019-02-27T09:45:35.123Z,99.90
2019-02-27T09:48:04.724Z,99.90
2019-02-27T09:50:35.841Z,99.90
2019-02-27T09:53:05.092Z,99.90
2019-02-27T09:55:34.068Z,99.90
2019-02-27T09:58:03.272Z,99.90
2019-02-27T10:00:36.965Z,99.90
2019-02-27T10:03:05.966Z,99.90
2019-02-27T10:05:36.679Z,99.90
2019-02-27T10:08:07.611Z,99.90
2019-02-27T10:10:36.831Z,99.90
2019-02-27T10:13:05.920Z,99.90
2019-02-27T10:15:34.923Z,99.90
2019-02-27T10:18:04.006Z,99.90
2019-02-27T10:20:37.012Z,99.90
2019-02-27T10:23:03.729Z,99.90
2019-02-27T10:25:32.825Z,99.90
2019-02-27T10:28:04.390Z,99.90
2019-02-27T10:30:32.448Z,99.90
2019-02-27T10:33:03.270Z,99.90
2019-02-27T10:35:32.289Z,99.90
2019-02-27T10:38:01.477Z,99.90
2019-02-27T10:40:30.566Z,99.90
2019-02-27T10:42:59.560Z,99.90
2019-02-27T10:45:28.653Z,99.90
2019-02-27T10:47:57.746Z,99.90
2019-02-27T10:50:26.846Z,99.90
2019-02-27T10:52:55.943Z,99.90
2019-02-27T10:55:26.806Z,99.90
2019-02-27T10:57:55.662Z,99.90
2019-02-27T11:00:32.846Z,99.90
2019-02-27T11:03:02.660Z,99.90
2019-02-27T11:05:33.783Z,99.10
2019-02-27T11:08:02.792Z,99.70
2019-02-27T11:10:31.895Z,99.90
2019-02-27T11:13:05.475Z,99.90
2019-02-27T11:15:31.732Z,99.40
2019-02-27T11:18:04.229Z,99.90
2019-02-27T11:20:31.339Z,99.50
2019-02-27T11:23:00.459Z,99.70
2019-02-27T11:25:30.703Z,98.60
2019-02-27T11:27:59.858Z,97.90
2019-02-27T11:30:36.852Z,98.60
2019-02-27T11:33:05.013Z,99.90
2019-02-27T11:35:33.994Z,99.50
2019-02-27T11:38:03.111Z,99.30
2019-02-27T11:40:32.284Z,99.90
2019-02-27T11:43:04.164Z,99.90
2019-02-27T11:45:32.007Z,99.90
2019-02-27T11:48:01.102Z,99.90
2019-02-27T11:50:30.197Z,99.90
2019-02-27T11:53:01.977Z,99.90
2019-02-27T11:55:30.230Z,99.90
2019-02-27T11:58:02.032Z,99.90
2019-02-27T12:00:30.671Z,99.90
2019-02-27T12:02:59.982Z,99.80
2019-02-27T12:05:33.875Z,99.30
2019-02-27T12:08:00.110Z,98.50
2019-02-27T12:10:31.149Z,99.10
2019-02-27T12:13:01.307Z,98.20
2019-02-27T12:15:30.972Z,97.60
2019-02-27T12:18:01.328Z,98.80
2019-02-27T12:20:30.724Z,99.00
2019-02-27T12:22:59.796Z,99.40
2019-02-27T12:25:30.134Z,99.40
2019-02-27T12:27:59.517Z,99.40
2019-02-27T12:30:29.930Z,99.30
2019-02-27T12:32:59.012Z,99.20
2019-02-27T12:35:35.284Z,99.30
2019-02-27T12:38:08.293Z,99.50
2019-02-27T12:40:37.174Z,99.20
2019-02-27T12:43:08.086Z,98.40
2019-02-27T12:45:37.922Z,99.10
2019-02-27T12:48:07.560Z,98.60
2019-02-27T12:50:37.127Z,98.80
2019-02-27T12:53:06.437Z,98.50
2019-02-27T12:55:36.364Z,98.00
2019-02-27T12:58:05.858Z,97.50
2019-02-27T13:00:36.364Z,97.10
2019-02-27T13:03:08.389Z,96.90
2019-02-27T13:05:36.568Z,96.40
2019-02-27T13:08:06.332Z,96.20
2019-02-27T13:10:35.423Z,96.10
2019-02-27T13:13:05.878Z,96.30
2019-02-27T13:15:38.327Z,95.30
2019-02-27T13:18:08.224Z,95.00
2019-02-27T13:20:37.416Z,95.20
2019-02-27T13:23:06.802Z,95.30
2019-02-27T13:25:35.902Z,95.30
2019-02-27T13:28:05.534Z,95.60
2019-02-27T13:30:34.806Z,95.40
2019-02-27T13:33:04.432Z,95.10
2019-02-27T13:35:33.642Z,95.00
2019-02-27T13:38:03.039Z,95.10
2019-02-27T13:40:35.667Z,94.80
2019-02-27T13:43:04.200Z,94.70
2019-02-27T13:45:33.701Z,94.20
2019-02-27T13:48:05.804Z,94.30
2019-02-27T13:50:33.734Z,94.30
2019-02-27T13:53:03.293Z,93.90
2019-02-27T13:55:32.435Z,93.10
2019-02-27T13:58:03.716Z,93.10
2019-02-27T14:00:33.436Z,93.50
2019-02-27T14:03:02.485Z,94.00
2019-02-27T14:05:35.073Z,94.00
2019-02-27T14:08:02.313Z,94.00
2019-02-27T14:10:32.474Z,94.20
2019-02-27T14:13:01.524Z,94.40
2019-02-27T14:15:31.711Z,94.00
2019-02-27T14:18:01.150Z,93.90
2019-02-27T14:20:30.449Z,93.90
2019-02-27T14:22:59.642Z,93.60
2019-02-27T14:25:33.064Z,93.40
2019-02-27T14:28:01.518Z,93.40
2019-02-27T14:30:36.681Z,92.90
2019-02-27T14:33:05.729Z,93.10
2019-02-27T14:35:36.396Z,93.00
2019-02-27T14:38:05.884Z,93.50
2019-02-27T14:40:37.678Z,93.10
2019-02-27T14:43:06.278Z,92.60
2019-02-27T14:45:39.880Z,92.60
2019-02-27T14:48:06.060Z,93.80
2019-02-27T14:50:35.248Z,93.20
2019-02-27T14:53:04.588Z,92.60
2019-02-27T14:55:36.299Z,92.80
2019-02-27T14:58:04.602Z,93.30
2019-02-27T15:00:40.936Z,93.70
2019-02-27T15:03:09.070Z,94.20
2019-02-27T15:05:43.139Z,94.20
2019-02-27T15:08:08.843Z,94.40
2019-02-27T15:10:41.178Z,94.60
2019-02-27T15:13:09.791Z,95.20
2019-02-27T15:15:43.433Z,95.00
2019-02-27T15:18:10.657Z,95.60
2019-02-27T15:20:41.045Z,95.50
2019-02-27T15:23:10.376Z,95.70
2019-02-27T15:25:43.138Z,95.90
2019-02-27T15:28:10.174Z,96.40
2019-02-27T15:30:39.499Z,96.80
2019-02-27T15:33:08.594Z,96.80
2019-02-27T15:35:39.020Z,97.10
2019-02-27T15:38:11.764Z,96.90
2019-02-27T15:40:40.795Z,97.00
2019-02-27T15:43:11.546Z,97.20
2019-02-27T15:45:47.438Z,97.60
2019-02-27T15:48:11.258Z,97.80
2019-02-27T15:50:40.348Z,98.30
2019-02-27T15:53:12.137Z,98.40
2019-02-27T15:55:40.273Z,98.50
2019-02-27T15:58:10.298Z,98.90
2019-02-27T16:00:40.411Z,99.10
2019-02-27T16:03:11.751Z,99.30
2019-02-27T16:05:40.409Z,99.20
2019-02-27T16:08:09.441Z,99.50
2019-02-27T16:10:42.653Z,99.60
2019-02-27T16:13:10.035Z,99.70
2019-02-27T16:15:39.791Z,99.90
2019-02-27T16:18:09.253Z,99.90
2019-02-27T16:20:38.285Z,99.90
2019-02-27T16:23:07.379Z,99.90
2019-02-27T16:25:36.473Z,99.90
2019-02-27T16:28:05.986Z,99.90
2019-02-27T16:30:37.247Z,99.90
2019-02-27T16:33:07.186Z,99.90
2019-02-27T16:35:41.635Z,99.90
2019-02-27T16:38:07.113Z,99.90
2019-02-27T16:40:36.172Z,99.90
2019-02-27T16:43:05.257Z,99.90
2019-02-27T16:45:38.363Z,99.90
2019-02-27T16:48:07.575Z,99.90
2019-02-27T16:50:36.625Z,99.90
2019-02-27T16:53:06.649Z,99.90
2019-02-27T16:55:36.889Z,99.90
2019-02-27T16:58:06.379Z,99.90
2019-02-27T17:00:37.956Z,99.90
2019-02-27T17:03:10.229Z,99.90
2019-02-27T17:05:40.230Z,99.90
2019-02-27T17:08:08.387Z,99.90
2019-02-27T17:10:38.516Z,99.90
2019-02-27T17:13:07.503Z,99.90
2019-02-27T17:15:36.620Z,99.90
2019-02-27T17:18:05.798Z,99.90
2019-02-27T17:20:34.886Z,99.90
2019-02-27T17:23:07.529Z,99.90
2019-02-27T17:25:34.613Z,99.90
2019-02-27T17:28:03.705Z,99.90
2019-02-27T17:30:36.845Z,99.90
2019-02-27T17:33:05.254Z,99.90
2019-02-27T17:35:34.571Z,99.90
2019-02-27T17:38:03.695Z,99.90
2019-02-27T17:40:36.507Z,99.90
2019-02-27T17:43:03.494Z,99.90
2019-02-27T17:45:32.589Z,99.90
2019-02-27T17:48:01.689Z,99.90
2019-02-27T17:50:31.681Z,99.90
2019-02-27T17:53:01.516Z,99.90
2019-02-27T17:55:30.516Z,99.90
2019-02-27T17:57:59.597Z,99.90
2019-02-27T18:00:37.807Z,99.90
2019-02-27T18:03:07.321Z,99.90
2019-02-27T18:05:36.299Z,99.90
2019-02-27T18:08:05.643Z,99.90
2019-02-27T18:10:37.585Z,99.90
2019-02-27T18:13:05.532Z,99.90
2019-02-27T18:15:34.623Z,99.90
2019-02-27T18:18:07.086Z,99.90
2019-02-27T18:20:34.452Z,99.90
2019-02-27T18:23:03.544Z,99.90
2019-02-27T18:25:32.641Z,99.90
2019-02-27T18:28:01.782Z,99.90
2019-02-27T18:30:30.934Z,99.90
2019-02-27T18:33:01.151Z,99.90
2019-02-27T18:35:30.490Z,99.90
2019-02-27T18:37:59.648Z,99.90
2019-02-27T18:40:28.950Z,99.90
2019-02-27T18:42:58.043Z,99.90
2019-02-27T18:45:30.415Z,99.90
2019-02-27T18:47:59.417Z,99.90
2019-02-27T18:50:28.498Z,99.90
2019-02-27T18:52:57.615Z,99.90
2019-02-27T18:55:30.711Z,99.90
2019-02-27T18:57:57.116Z,99.90
2019-02-27T19:00:33.447Z,99.90
2019-02-27T19:03:07.181Z,99.90
2019-02-27T19:05:40.841Z,99.90
2019-02-27T19:08:08.445Z,99.90
2019-02-27T19:10:41.325Z,99.90
2019-02-27T19:13:08.374Z,99.90
2019-02-27T19:15:37.466Z,99.90
2019-02-27T19:18:07.305Z,99.90
2019-02-27T19:20:42.148Z,99.90
2019-02-27T19:23:11.305Z,99.90
2019-02-27T19:25:40.398Z,99.90
2019-02-27T19:28:10.400Z,99.90
2019-02-27T19:30:43.617Z,99.90
2019-02-27T19:33:14.632Z,99.90
2019-02-27T19:35:45.784Z,99.90
2019-02-27T19:38:16.217Z,99.90
2019-02-27T19:40:46.670Z,99.90
2019-02-27T19:43:18.172Z,99.90
2019-02-27T19:45:48.584Z,99.90
2019-02-27T19:48:18.124Z,99.90
2019-02-27T19:50:50.635Z,99.90
2019-02-27T19:53:19.796Z,99.90
2019-02-27T19:55:48.885Z,99.90
2019-02-27T19:58:18.362Z,99.90
2019-02-27T20:00:48.881Z,99.90
2019-02-27T20:03:18.132Z,99.90
2019-02-27T20:05:47.210Z,99.90
2019-02-27T20:08:16.205Z,99.90
2019-02-27T20:10:45.422Z,99.90
2019-02-27T20:13:14.595Z,99.90
2019-02-27T20:15:45.686Z,99.90
2019-02-27T20:18:14.643Z,99.90
2019-02-27T20:20:43.954Z,99.90
2019-02-27T20:23:13.023Z,99.90
2019-02-27T20:25:44.138Z,99.90
2019-02-27T20:28:12.851Z,99.90
2019-02-27T20:30:42.252Z,99.90
2019-02-27T20:33:11.346Z,99.90
2019-02-27T20:35:40.649Z,99.90
2019-02-27T20:38:15.375Z,99.90
2019-02-27T20:40:40.573Z,99.90
2019-02-27T20:43:09.672Z,99.90
2019-02-27T20:45:40.057Z,99.90
2019-02-27T20:48:09.597Z,99.90
2019-02-27T20:50:47.193Z,99.90
2019-02-27T20:53:16.286Z,99.90
2019-02-27T20:55:45.380Z,99.90
2019-02-27T20:58:16.870Z,99.90
2019-02-27T21:00:45.108Z,99.90
2019-02-27T21:03:14.207Z,99.90
2019-02-27T21:05:43.297Z,99.90
2019-02-27T21:08:12.394Z,99.90
2019-02-27T21:10:41.491Z,99.90
2019-02-27T21:13:15.654Z,99.90
2019-02-27T21:15:41.211Z,99.90
2019-02-27T21:18:10.407Z,99.90
2019-02-27T21:20:42.081Z,99.90
2019-02-27T21:23:10.244Z,99.90
2019-02-27T21:25:39.433Z,99.90
2019-02-27T21:28:08.528Z,99.90
2019-02-27T21:30:37.621Z,99.90
2019-02-27T21:33:08.347Z,99.90
2019-02-27T21:35:37.346Z,99.90
2019-02-27T21:38:06.442Z,99.90
2019-02-27T21:40:36.272Z,99.90
2019-02-27T21:43:06.477Z,99.90
2019-02-27T21:45:37.432Z,99.90
2019-02-27T21:48:06.195Z,99.90
2019-02-27T21:50:39.535Z,99.90
2019-02-27T21:53:06.741Z,99.90
2019-02-27T21:55:35.838Z,99.90
2019-02-27T21:58:04.949Z,99.90
2019-02-27T22:00:34.125Z,99.90
2019-02-27T22:03:05.029Z,99.90
2019-02-27T22:05:42.569Z,99.90
2019-02-27T22:08:05.490Z,99.90
2019-02-27T22:10:35.113Z,99.90
2019-02-27T22:13:09.290Z,99.90
2019-02-27T22:15:34.650Z,99.90
2019-02-27T22:18:03.727Z,99.90
2019-02-27T22:20:32.719Z,99.90
2019-02-27T22:23:01.812Z,99.90
2019-02-27T22:25:31.272Z,99.90
2019-02-27T22:28:00.513Z,99.90
2019-02-27T22:30:31.734Z,99.90
2019-02-27T22:33:00.243Z,99.90
2019-02-27T22:35:30.444Z,99.90
2019-02-27T22:37:59.656Z,99.90
2019-02-27T22:40:28.751Z,99.90
2019-02-27T22:42:57.844Z,99.90
2019-02-27T22:45:26.838Z,99.90
2019-02-27T22:47:57.538Z,99.90
2019-02-27T22:50:26.767Z,99.90
2019-02-27T22:52:55.769Z,99.90
2019-02-27T22:55:24.854Z,99.90
2019-02-27T22:57:54.856Z,99.90
2019-02-27T23:00:31.851Z,99.90
2019-02-27T23:03:00.763Z,99.90
2019-02-27T23:05:29.701Z,99.90
2019-02-27T23:07:59.750Z,99.90
2019-02-27T23:10:30.945Z,99.90
2019-02-27T23:12:59.983Z,99.90
2019-02-27T23:15:28.976Z,99.90
2019-02-27T23:17:58.070Z,99.90
2019-02-27T23:20:27.165Z,99.90
2019-02-27T23:22:56.262Z,99.90
2019-02-27T23:25:25.352Z,99.90
2019-02-27T23:27:54.448Z,99.90
2019-02-27T23:30:23.545Z,99.90
2019-02-27T23:32:52.638Z,99.90
2019-02-27T23:35:21.731Z,99.90
2019-02-27T23:37:50.826Z,99.90
2019-02-27T23:40:19.924Z,99.90
2019-02-27T23:42:49.016Z,99.90
2019-02-27T23:45:18.111Z,99.90
2019-02-27T23:47:47.204Z,99.90
2019-02-27T23:50:16.224Z,99.90
2019-02-27T23:52:45.294Z,99.90
2019-02-27T23:55:14.284Z,99.90
2019-02-27T23:57:43.378Z,99.90
